sensor_id;sensor_type;location;lat;lon;timestamp;temperature;humidity
66873;HTU21D;53781;51.090;5.884;2022-10-16T00:00:11;16.19;78.97
66873;HTU21D;53781;51.090;5.884;2022-10-16T00:00:26;16.20;78.97
66873;HTU21D;53781;51.090;5.884;2022-10-16T00:00:42;16.21;78.95
66873;HTU21D;53781;51.090;5.884;2022-10-16T00:00:57;16.21;79.00
66873;HTU21D;53781;51.090;5.884;2022-10-16T00:01:14;16.21;78.92
66873;HTU21D;53781;51.090;5.884;2022-10-16T00:01:30;16.20;78.92
66873;HTU21D;53781;51.090;5.884;2022-10-16T00:01:44;16.20;78.91
66873;HTU21D;53781;51.090;5.884;2022-10-16T00:01:59;16.20;78.86
66873;HTU21D;53781;51.090;5.884;2022-10-16T00:02:14;16.21;78.86
66873;HTU21D;53781;51.090;5.884;2022-10-16T00:02:29;16.19;78.82
66873;HTU21D;53781;51.090;5.884;2022-10-16T00:02:43;16.19;78.91
66873;HTU21D;53781;51.090;5.884;2022-10-16T00:02:58;16.21;78.84
66873;HTU21D;53781;51.090;5.884;2022-10-16T00:03:13;16.19;78.86
66873;HTU21D;53781;51.090;5.884;2022-10-16T00:03:28;16.18;78.90
66873;HTU21D;53781;51.090;5.884;2022-10-16T00:03:44;16.20;78.90
66873;HTU21D;53781;51.090;5.884;2022-10-16T00:04:00;16.19;78.91
66873;HTU21D;53781;51.090;5.884;2022-10-16T00:04:15;16.20;78.92
66873;HTU21D;53781;51.090;5.884;2022-10-16T00:04:30;16.20;78.94
66873;HTU21D;53781;51.090;5.884;2022-10-16T00:04:44;16.21;78.89
66873;HTU21D;53781;51.090;5.884;2022-10-16T00:04:59;16.21;78.91
66873;HTU21D;53781;51.090;5.884;2022-10-16T00:05:14;16.20;78.87
66873;HTU21D;53781;51.090;5.884;2022-10-16T00:05:29;16.20;78.87
66873;HTU21D;53781;51.090;5.884;2022-10-16T00:05:44;16.20;78.86
66873;HTU21D;53781;51.090;5.884;2022-10-16T00:06:00;16.20;78.85
66873;HTU21D;53781;51.090;5.884;2022-10-16T00:06:17;16.20;78.87
66873;HTU21D;53781;51.090;5.884;2022-10-16T00:06:32;16.20;78.82
66873;HTU21D;53781;51.090;5.884;2022-10-16T00:06:47;16.20;78.82
66873;HTU21D;53781;51.090;5.884;2022-10-16T00:07:01;16.20;78.79
66873;HTU21D;53781;51.090;5.884;2022-10-16T00:07:16;16.20;78.75
66873;HTU21D;53781;51.090;5.884;2022-10-16T00:07:31;16.20;78.75
66873;HTU21D;53781;51.090;5.884;2022-10-16T00:07:45;16.21;78.72
66873;HTU21D;53781;51.090;5.884;2022-10-16T00:08:00;16.20;78.72
66873;HTU21D;53781;51.090;5.884;2022-10-16T00:08:14;16.21;78.70
66873;HTU21D;53781;51.090;5.884;2022-10-16T00:08:30;16.20;78.66
66873;HTU21D;53781;51.090;5.884;2022-10-16T00:08:45;16.21;78.66
66873;HTU21D;53781;51.090;5.884;2022-10-16T00:09:00;16.20;78.63
66873;HTU21D;53781;51.090;5.884;2022-10-16T00:09:16;16.20;78.63
66873;HTU21D;53781;51.090;5.884;2022-10-16T00:09:31;16.19;78.62
66873;HTU21D;53781;51.090;5.884;2022-10-16T00:09:46;16.21;78.59
66873;HTU21D;53781;51.090;5.884;2022-10-16T00:10:00;16.20;78.57
66873;HTU21D;53781;51.090;5.884;2022-10-16T00:10:15;16.20;78.52
66873;HTU21D;53781;51.090;5.884;2022-10-16T00:10:30;16.21;78.55
66873;HTU21D;53781;51.090;5.884;2022-10-16T00:10:44;16.22;78.51
66873;HTU21D;53781;51.090;5.884;2022-10-16T00:11:08;16.20;78.50
66873;HTU21D;53781;51.090;5.884;2022-10-16T00:11:29;16.20;78.57
66873;HTU21D;53781;51.090;5.884;2022-10-16T00:11:44;16.20;78.52
66873;HTU21D;53781;51.090;5.884;2022-10-16T00:11:59;16.21;78.53
66873;HTU21D;53781;51.090;5.884;2022-10-16T00:12:14;16.20;78.56
66873;HTU21D;53781;51.090;5.884;2022-10-16T00:12:28;16.20;78.54
66873;HTU21D;53781;51.090;5.884;2022-10-16T00:12:43;16.20;78.51
66873;HTU21D;53781;51.090;5.884;2022-10-16T00:12:58;16.21;78.50
66873;HTU21D;53781;51.090;5.884;2022-10-16T00:13:12;16.21;78.50
66873;HTU21D;53781;51.090;5.884;2022-10-16T00:13:27;16.21;78.48
66873;HTU21D;53781;51.090;5.884;2022-10-16T00:13:43;16.21;78.40
66873;HTU21D;53781;51.090;5.884;2022-10-16T00:14:00;16.25;78.42
66873;HTU21D;53781;51.090;5.884;2022-10-16T00:14:15;16.21;78.41
66873;HTU21D;53781;51.090;5.884;2022-10-16T00:14:30;16.20;78.34
66873;HTU21D;53781;51.090;5.884;2022-10-16T00:14:45;16.22;78.35
66873;HTU21D;53781;51.090;5.884;2022-10-16T00:14:59;16.21;78.26
66873;HTU21D;53781;51.090;5.884;2022-10-16T00:15:14;16.21;78.30
66873;HTU21D;53781;51.090;5.884;2022-10-16T00:15:30;16.22;78.24
66873;HTU21D;53781;51.090;5.884;2022-10-16T00:15:45;16.21;78.22
66873;HTU21D;53781;51.090;5.884;2022-10-16T00:16:01;16.22;78.24
66873;HTU21D;53781;51.090;5.884;2022-10-16T00:16:17;16.24;78.24
66873;HTU21D;53781;51.090;5.884;2022-10-16T00:16:33;16.22;78.25
66873;HTU21D;53781;51.090;5.884;2022-10-16T00:16:48;16.24;78.29
66873;HTU21D;53781;51.090;5.884;2022-10-16T00:17:02;16.24;78.29
66873;HTU21D;53781;51.090;5.884;2022-10-16T00:17:17;16.25;78.24
66873;HTU21D;53781;51.090;5.884;2022-10-16T00:17:32;16.24;78.29
66873;HTU21D;53781;51.090;5.884;2022-10-16T00:17:47;16.24;78.20
66873;HTU21D;53781;51.090;5.884;2022-10-16T00:18:02;16.22;78.24
66873;HTU21D;53781;51.090;5.884;2022-10-16T00:18:17;16.22;78.22
66873;HTU21D;53781;51.090;5.884;2022-10-16T00:18:32;16.25;78.25
66873;HTU21D;53781;51.090;5.884;2022-10-16T00:18:47;16.24;78.24
66873;HTU21D;53781;51.090;5.884;2022-10-16T00:19:03;16.22;78.21
66873;HTU21D;53781;51.090;5.884;2022-10-16T00:19:18;16.22;78.24
66873;HTU21D;53781;51.090;5.884;2022-10-16T00:19:32;16.21;78.18
66873;HTU21D;53781;51.090;5.884;2022-10-16T00:19:47;16.24;78.17
66873;HTU21D;53781;51.090;5.884;2022-10-16T00:20:20;16.24;78.20
66873;HTU21D;53781;51.090;5.884;2022-10-16T00:20:55;16.24;78.18
66873;HTU21D;53781;51.090;5.884;2022-10-16T00:21:30;16.22;78.16
66873;HTU21D;53781;51.090;5.884;2022-10-16T00:22:04;16.22;78.17
66873;HTU21D;53781;51.090;5.884;2022-10-16T00:22:37;16.21;78.12
66873;HTU21D;53781;51.090;5.884;2022-10-16T00:22:51;16.22;78.14
66873;HTU21D;53781;51.090;5.884;2022-10-16T00:23:06;16.20;78.18
66873;HTU21D;53781;51.090;5.884;2022-10-16T00:23:21;16.20;78.23
66873;HTU21D;53781;51.090;5.884;2022-10-16T00:23:36;16.22;78.21
66873;HTU21D;53781;51.090;5.884;2022-10-16T00:23:55;16.20;78.23
66873;HTU21D;53781;51.090;5.884;2022-10-16T00:24:10;16.21;78.21
66873;HTU21D;53781;51.090;5.884;2022-10-16T00:24:25;16.20;78.16
66873;HTU21D;53781;51.090;5.884;2022-10-16T00:24:40;16.20;78.10
66873;HTU21D;53781;51.090;5.884;2022-10-16T00:24:54;16.21;78.11
66873;HTU21D;53781;51.090;5.884;2022-10-16T00:25:09;16.21;78.06
66873;HTU21D;53781;51.090;5.884;2022-10-16T00:25:24;16.19;78.16
66873;HTU21D;53781;51.090;5.884;2022-10-16T00:25:39;16.22;78.11
66873;HTU21D;53781;51.090;5.884;2022-10-16T00:25:59;16.21;78.12
66873;HTU21D;53781;51.090;5.884;2022-10-16T00:26:16;16.19;78.11
66873;HTU21D;53781;51.090;5.884;2022-10-16T00:26:33;16.21;78.08
66873;HTU21D;53781;51.090;5.884;2022-10-16T00:26:49;16.21;78.08
66873;HTU21D;53781;51.090;5.884;2022-10-16T00:27:05;16.21;78.15
66873;HTU21D;53781;51.090;5.884;2022-10-16T00:27:20;16.21;78.15
66873;HTU21D;53781;51.090;5.884;2022-10-16T00:27:35;16.21;78.16
66873;HTU21D;53781;51.090;5.884;2022-10-16T00:27:49;16.20;78.14
66873;HTU21D;53781;51.090;5.884;2022-10-16T00:28:04;16.20;78.21
66873;HTU21D;53781;51.090;5.884;2022-10-16T00:28:19;16.19;78.14
66873;HTU21D;53781;51.090;5.884;2022-10-16T00:28:34;16.19;78.17
66873;HTU21D;53781;51.090;5.884;2022-10-16T00:28:50;16.19;78.14
66873;HTU21D;53781;51.090;5.884;2022-10-16T00:29:06;16.18;78.19
66873;HTU21D;53781;51.090;5.884;2022-10-16T00:29:21;16.18;78.17
66873;HTU21D;53781;51.090;5.884;2022-10-16T00:29:35;16.18;78.09
66873;HTU21D;53781;51.090;5.884;2022-10-16T00:29:51;16.19;78.08
66873;HTU21D;53781;51.090;5.884;2022-10-16T00:30:07;16.18;78.11
66873;HTU21D;53781;51.090;5.884;2022-10-16T00:30:22;16.18;78.09
66873;HTU21D;53781;51.090;5.884;2022-10-16T00:30:38;16.20;78.08
66873;HTU21D;53781;51.090;5.884;2022-10-16T00:30:53;16.17;78.12
66873;HTU21D;53781;51.090;5.884;2022-10-16T00:31:10;16.18;78.13
66873;HTU21D;53781;51.090;5.884;2022-10-16T00:31:26;16.18;78.15
66873;HTU21D;53781;51.090;5.884;2022-10-16T00:31:41;16.18;78.17
66873;HTU21D;53781;51.090;5.884;2022-10-16T00:31:56;16.18;78.22
66873;HTU21D;53781;51.090;5.884;2022-10-16T00:32:10;16.18;78.13
66873;HTU21D;53781;51.090;5.884;2022-10-16T00:32:25;16.17;78.07
66873;HTU21D;53781;51.090;5.884;2022-10-16T00:32:40;16.17;78.08
66873;HTU21D;53781;51.090;5.884;2022-10-16T00:32:55;16.18;78.03
66873;HTU21D;53781;51.090;5.884;2022-10-16T00:33:10;16.17;78.04
66873;HTU21D;53781;51.090;5.884;2022-10-16T00:33:24;16.15;78.05
66873;HTU21D;53781;51.090;5.884;2022-10-16T00:33:40;16.17;78.19
66873;HTU21D;53781;51.090;5.884;2022-10-16T00:33:55;16.19;78.14
66873;HTU21D;53781;51.090;5.884;2022-10-16T00:34:10;16.16;78.15
66873;HTU21D;53781;51.090;5.884;2022-10-16T00:34:24;16.18;78.12
66873;HTU21D;53781;51.090;5.884;2022-10-16T00:34:39;16.17;78.11
66873;HTU21D;53781;51.090;5.884;2022-10-16T00:34:54;16.17;78.15
66873;HTU21D;53781;51.090;5.884;2022-10-16T00:35:09;16.17;78.17
66873;HTU21D;53781;51.090;5.884;2022-10-16T00:35:23;16.16;78.10
66873;HTU21D;53781;51.090;5.884;2022-10-16T00:35:38;16.17;78.13
66873;HTU21D;53781;51.090;5.884;2022-10-16T00:35:53;16.16;78.09
66873;HTU21D;53781;51.090;5.884;2022-10-16T00:36:11;16.15;78.11
66873;HTU21D;53781;51.090;5.884;2022-10-16T00:36:26;16.17;78.05
66873;HTU21D;53781;51.090;5.884;2022-10-16T00:36:41;16.16;78.06
66873;HTU21D;53781;51.090;5.884;2022-10-16T00:36:56;16.17;78.08
66873;HTU21D;53781;51.090;5.884;2022-10-16T00:37:10;16.16;78.05
66873;HTU21D;53781;51.090;5.884;2022-10-16T00:37:25;16.16;78.11
66873;HTU21D;53781;51.090;5.884;2022-10-16T00:37:40;16.17;78.07
66873;HTU21D;53781;51.090;5.884;2022-10-16T00:37:54;16.16;78.12
66873;HTU21D;53781;51.090;5.884;2022-10-16T00:38:09;16.16;78.12
66873;HTU21D;53781;51.090;5.884;2022-10-16T00:38:24;16.17;78.16
66873;HTU21D;53781;51.090;5.884;2022-10-16T00:38:39;16.17;78.16
66873;HTU21D;53781;51.090;5.884;2022-10-16T00:38:55;16.16;78.18
66873;HTU21D;53781;51.090;5.884;2022-10-16T00:39:10;16.16;78.13
66873;HTU21D;53781;51.090;5.884;2022-10-16T00:39:25;16.16;78.17
66873;HTU21D;53781;51.090;5.884;2022-10-16T00:39:40;16.15;78.15
66873;HTU21D;53781;51.090;5.884;2022-10-16T00:39:55;16.16;78.14
66873;HTU21D;53781;51.090;5.884;2022-10-16T00:40:10;16.15;78.12
66873;HTU21D;53781;51.090;5.884;2022-10-16T00:40:25;16.16;78.11
66873;HTU21D;53781;51.090;5.884;2022-10-16T00:40:39;16.15;78.08
66873;HTU21D;53781;51.090;5.884;2022-10-16T00:40:54;16.15;78.05
66873;HTU21D;53781;51.090;5.884;2022-10-16T00:41:15;16.15;78.04
66873;HTU21D;53781;51.090;5.884;2022-10-16T00:41:31;16.14;78.05
66873;HTU21D;53781;51.090;5.884;2022-10-16T00:41:46;16.16;78.01
66873;HTU21D;53781;51.090;5.884;2022-10-16T00:42:00;16.15;78.06
66873;HTU21D;53781;51.090;5.884;2022-10-16T00:42:18;16.15;78.06
66873;HTU21D;53781;51.090;5.884;2022-10-16T00:42:33;16.14;78.03
66873;HTU21D;53781;51.090;5.884;2022-10-16T00:42:47;16.16;78.04
66873;HTU21D;53781;51.090;5.884;2022-10-16T00:43:02;16.15;78.10
66873;HTU21D;53781;51.090;5.884;2022-10-16T00:43:43;16.14;78.08
66873;HTU21D;53781;51.090;5.884;2022-10-16T00:44:01;16.14;78.11
66873;HTU21D;53781;51.090;5.884;2022-10-16T00:44:42;16.14;78.13
66873;HTU21D;53781;51.090;5.884;2022-10-16T00:44:57;16.14;78.13
66873;HTU21D;53781;51.090;5.884;2022-10-16T00:45:12;16.15;78.15
66873;HTU21D;53781;51.090;5.884;2022-10-16T00:45:26;16.15;78.17
66873;HTU21D;53781;51.090;5.884;2022-10-16T00:45:41;16.15;78.19
66873;HTU21D;53781;51.090;5.884;2022-10-16T00:45:56;16.15;78.20
66873;HTU21D;53781;51.090;5.884;2022-10-16T00:46:37;16.14;78.24
66873;HTU21D;53781;51.090;5.884;2022-10-16T00:46:52;16.14;78.21
66873;HTU21D;53781;51.090;5.884;2022-10-16T00:47:32;16.13;78.12
66873;HTU21D;53781;51.090;5.884;2022-10-16T00:47:52;16.14;78.13
66873;HTU21D;53781;51.090;5.884;2022-10-16T00:48:13;16.14;78.05
66873;HTU21D;53781;51.090;5.884;2022-10-16T00:48:29;16.14;78.10
66873;HTU21D;53781;51.090;5.884;2022-10-16T00:49:11;16.15;78.01
66873;HTU21D;53781;51.090;5.884;2022-10-16T00:49:27;16.13;78.01
66873;HTU21D;53781;51.090;5.884;2022-10-16T00:49:41;16.12;78.07
66873;HTU21D;53781;51.090;5.884;2022-10-16T00:50:18;16.13;78.01
66873;HTU21D;53781;51.090;5.884;2022-10-16T00:50:36;16.13;78.03
66873;HTU21D;53781;51.090;5.884;2022-10-16T00:50:52;16.11;78.06
66873;HTU21D;53781;51.090;5.884;2022-10-16T00:51:08;16.12;77.96
66873;HTU21D;53781;51.090;5.884;2022-10-16T00:51:28;16.12;78.06
66873;HTU21D;53781;51.090;5.884;2022-10-16T00:51:53;16.12;77.98
66873;HTU21D;53781;51.090;5.884;2022-10-16T00:52:10;16.11;78.07
66873;HTU21D;53781;51.090;5.884;2022-10-16T00:52:26;16.11;78.12
66873;HTU21D;53781;51.090;5.884;2022-10-16T00:52:45;16.10;78.09
66873;HTU21D;53781;51.090;5.884;2022-10-16T00:53:01;16.11;78.10
66873;HTU21D;53781;51.090;5.884;2022-10-16T00:53:17;16.11;78.19
66873;HTU21D;53781;51.090;5.884;2022-10-16T00:53:32;16.12;78.24
66873;HTU21D;53781;51.090;5.884;2022-10-16T00:53:49;16.12;78.27
66873;HTU21D;53781;51.090;5.884;2022-10-16T00:54:18;16.12;78.26
66873;HTU21D;53781;51.090;5.884;2022-10-16T00:54:34;16.12;78.26
66873;HTU21D;53781;51.090;5.884;2022-10-16T00:54:50;16.12;78.28
66873;HTU21D;53781;51.090;5.884;2022-10-16T00:55:09;16.13;78.26
66873;HTU21D;53781;51.090;5.884;2022-10-16T00:55:25;16.14;78.21
66873;HTU21D;53781;51.090;5.884;2022-10-16T00:55:40;16.12;78.27
66873;HTU21D;53781;51.090;5.884;2022-10-16T00:55:55;16.13;78.27
66873;HTU21D;53781;51.090;5.884;2022-10-16T00:56:10;16.12;78.25
66873;HTU21D;53781;51.090;5.884;2022-10-16T00:56:25;16.14;78.27
66873;HTU21D;53781;51.090;5.884;2022-10-16T00:56:42;16.12;78.28
66873;HTU21D;53781;51.090;5.884;2022-10-16T00:57:01;16.14;78.26
66873;HTU21D;53781;51.090;5.884;2022-10-16T00:57:16;16.14;78.30
66873;HTU21D;53781;51.090;5.884;2022-10-16T00:57:31;16.13;78.25
66873;HTU21D;53781;51.090;5.884;2022-10-16T00:57:46;16.12;78.27
66873;HTU21D;53781;51.090;5.884;2022-10-16T00:58:02;16.14;78.30
66873;HTU21D;53781;51.090;5.884;2022-10-16T00:58:16;16.12;78.34
66873;HTU21D;53781;51.090;5.884;2022-10-16T00:58:31;16.12;78.30
66873;HTU21D;53781;51.090;5.884;2022-10-16T00:58:46;16.11;78.32
66873;HTU21D;53781;51.090;5.884;2022-10-16T00:59:06;16.12;78.34
66873;HTU21D;53781;51.090;5.884;2022-10-16T00:59:28;16.11;78.34
66873;HTU21D;53781;51.090;5.884;2022-10-16T00:59:43;16.11;78.32
66873;HTU21D;53781;51.090;5.884;2022-10-16T00:59:58;16.10;78.36
66873;HTU21D;53781;51.090;5.884;2022-10-16T01:00:18;16.11;78.35
66873;HTU21D;53781;51.090;5.884;2022-10-16T01:00:32;16.12;78.32
66873;HTU21D;53781;51.090;5.884;2022-10-16T01:00:47;16.10;78.32
66873;HTU21D;53781;51.090;5.884;2022-10-16T01:01:02;16.11;78.37
66873;HTU21D;53781;51.090;5.884;2022-10-16T01:01:17;16.11;78.35
66873;HTU21D;53781;51.090;5.884;2022-10-16T01:01:31;16.10;78.40
66873;HTU21D;53781;51.090;5.884;2022-10-16T01:01:46;16.10;78.42
66873;HTU21D;53781;51.090;5.884;2022-10-16T01:02:03;16.11;78.43
66873;HTU21D;53781;51.090;5.884;2022-10-16T01:02:18;16.10;78.45
66873;HTU21D;53781;51.090;5.884;2022-10-16T01:02:32;16.10;78.48
66873;HTU21D;53781;51.090;5.884;2022-10-16T01:02:54;16.10;78.53
66873;HTU21D;53781;51.090;5.884;2022-10-16T01:03:44;16.11;78.50
66873;HTU21D;53781;51.090;5.884;2022-10-16T01:03:59;16.10;78.53
66873;HTU21D;53781;51.090;5.884;2022-10-16T01:04:14;16.10;78.53
66873;HTU21D;53781;51.090;5.884;2022-10-16T01:04:39;16.12;78.56
66873;HTU21D;53781;51.090;5.884;2022-10-16T01:04:55;16.11;78.56
66873;HTU21D;53781;51.090;5.884;2022-10-16T01:05:10;16.10;78.57
66873;HTU21D;53781;51.090;5.884;2022-10-16T01:05:47;16.11;78.46
66873;HTU21D;53781;51.090;5.884;2022-10-16T01:06:36;16.12;78.42
66873;HTU21D;53781;51.090;5.884;2022-10-16T01:07:08;16.11;78.40
66873;HTU21D;53781;51.090;5.884;2022-10-16T01:07:34;16.10;78.37
66873;HTU21D;53781;51.090;5.884;2022-10-16T01:08:17;16.10;78.36
66873;HTU21D;53781;51.090;5.884;2022-10-16T01:08:49;16.11;78.36
66873;HTU21D;53781;51.090;5.884;2022-10-16T01:09:21;16.08;78.44
66873;HTU21D;53781;51.090;5.884;2022-10-16T01:11:01;16.08;78.34
66873;HTU21D;53781;51.090;5.884;2022-10-16T01:11:33;16.07;78.36
66873;HTU21D;53781;51.090;5.884;2022-10-16T01:13:09;16.07;78.36
66873;HTU21D;53781;51.090;5.884;2022-10-16T01:13:30;16.07;78.34
66873;HTU21D;53781;51.090;5.884;2022-10-16T01:13:54;16.05;78.40
66873;HTU21D;53781;51.090;5.884;2022-10-16T01:14:21;16.07;78.45
66873;HTU21D;53781;51.090;5.884;2022-10-16T01:14:58;16.08;78.50
66873;HTU21D;53781;51.090;5.884;2022-10-16T01:15:27;16.05;78.58
66873;HTU21D;53781;51.090;5.884;2022-10-16T01:16:05;16.06;78.59
66873;HTU21D;53781;51.090;5.884;2022-10-16T01:17:33;16.03;78.69
66873;HTU21D;53781;51.090;5.884;2022-10-16T01:18:21;16.04;78.66
66873;HTU21D;53781;51.090;5.884;2022-10-16T01:18:45;16.04;78.65
66873;HTU21D;53781;51.090;5.884;2022-10-16T01:19:16;16.04;78.54
66873;HTU21D;53781;51.090;5.884;2022-10-16T01:20:31;16.02;78.52
66873;HTU21D;53781;51.090;5.884;2022-10-16T01:21:01;16.02;78.53
66873;HTU21D;53781;51.090;5.884;2022-10-16T01:21:43;16.03;78.58
66873;HTU21D;53781;51.090;5.884;2022-10-16T01:22:01;16.02;78.65
66873;HTU21D;53781;51.090;5.884;2022-10-16T01:22:17;16.07;78.56
66873;HTU21D;53781;51.090;5.884;2022-10-16T01:24:31;16.03;78.56
66873;HTU21D;53781;51.090;5.884;2022-10-16T01:24:50;16.01;78.57
66873;HTU21D;53781;51.090;5.884;2022-10-16T01:25:12;16.02;78.57
66873;HTU21D;53781;51.090;5.884;2022-10-16T01:25:36;16.03;78.59
66873;HTU21D;53781;51.090;5.884;2022-10-16T01:27:27;16.01;78.59
66873;HTU21D;53781;51.090;5.884;2022-10-16T01:27:46;16.01;78.58
66873;HTU21D;53781;51.090;5.884;2022-10-16T01:28:06;16.00;78.63
66873;HTU21D;53781;51.090;5.884;2022-10-16T01:28:40;16.01;78.63
66873;HTU21D;53781;51.090;5.884;2022-10-16T01:29:13;15.99;78.65
66873;HTU21D;53781;51.090;5.884;2022-10-16T01:30:12;15.98;78.69
66873;HTU21D;53781;51.090;5.884;2022-10-16T01:30:32;15.98;78.72
66873;HTU21D;53781;51.090;5.884;2022-10-16T01:30:53;15.97;78.69
66873;HTU21D;53781;51.090;5.884;2022-10-16T01:31:12;15.98;78.74
66873;HTU21D;53781;51.090;5.884;2022-10-16T01:31:34;15.99;78.72
66873;HTU21D;53781;51.090;5.884;2022-10-16T01:31:59;15.99;78.74
66873;HTU21D;53781;51.090;5.884;2022-10-16T01:32:31;15.99;78.72
66873;HTU21D;53781;51.090;5.884;2022-10-16T01:33:03;15.98;78.77
66873;HTU21D;53781;51.090;5.884;2022-10-16T01:33:24;15.98;78.75
66873;HTU21D;53781;51.090;5.884;2022-10-16T01:33:51;15.97;78.80
66873;HTU21D;53781;51.090;5.884;2022-10-16T01:34:16;15.96;78.82
66873;HTU21D;53781;51.090;5.884;2022-10-16T01:34:48;15.96;78.84
66873;HTU21D;53781;51.090;5.884;2022-10-16T01:35:11;15.97;78.82
66873;HTU21D;53781;51.090;5.884;2022-10-16T01:35:48;15.93;78.77
66873;HTU21D;53781;51.090;5.884;2022-10-16T01:36:15;15.93;78.72
66873;HTU21D;53781;51.090;5.884;2022-10-16T01:36:37;15.92;78.69
66873;HTU21D;53781;51.090;5.884;2022-10-16T01:37:00;15.92;78.65
66873;HTU21D;53781;51.090;5.884;2022-10-16T01:37:44;15.93;78.63
66873;HTU21D;53781;51.090;5.884;2022-10-16T01:38:24;15.90;78.55
66873;HTU21D;53781;51.090;5.884;2022-10-16T01:38:43;15.91;78.55
66873;HTU21D;53781;51.090;5.884;2022-10-16T01:39:01;15.89;78.53
66873;HTU21D;53781;51.090;5.884;2022-10-16T01:39:21;15.90;78.47
66873;HTU21D;53781;51.090;5.884;2022-10-16T01:39:39;15.90;78.42
66873;HTU21D;53781;51.090;5.884;2022-10-16T01:39:59;15.89;78.42
66873;HTU21D;53781;51.090;5.884;2022-10-16T01:40:17;15.87;78.43
66873;HTU21D;53781;51.090;5.884;2022-10-16T01:40:36;15.88;78.43
66873;HTU21D;53781;51.090;5.884;2022-10-16T01:41:00;15.88;78.35
66873;HTU21D;53781;51.090;5.884;2022-10-16T01:41:22;15.88;78.37
66873;HTU21D;53781;51.090;5.884;2022-10-16T01:41:51;15.88;78.36
66873;HTU21D;53781;51.090;5.884;2022-10-16T01:42:15;15.87;78.40
66873;HTU21D;53781;51.090;5.884;2022-10-16T01:42:37;15.83;78.37
66873;HTU21D;53781;51.090;5.884;2022-10-16T01:42:59;15.86;78.35
66873;HTU21D;53781;51.090;5.884;2022-10-16T01:43:19;15.84;78.44
66873;HTU21D;53781;51.090;5.884;2022-10-16T01:43:49;15.84;78.43
66873;HTU21D;53781;51.090;5.884;2022-10-16T01:44:19;15.85;78.42
66873;HTU21D;53781;51.090;5.884;2022-10-16T01:44:37;15.84;78.43
66873;HTU21D;53781;51.090;5.884;2022-10-16T01:44:56;15.84;78.46
66873;HTU21D;53781;51.090;5.884;2022-10-16T01:45:15;15.85;78.43
66873;HTU21D;53781;51.090;5.884;2022-10-16T01:45:34;15.84;78.46
66873;HTU21D;53781;51.090;5.884;2022-10-16T01:45:49;15.85;78.50
66873;HTU21D;53781;51.090;5.884;2022-10-16T01:46:05;15.82;78.50
66873;HTU21D;53781;51.090;5.884;2022-10-16T01:46:24;15.82;78.54
66873;HTU21D;53781;51.090;5.884;2022-10-16T01:46:41;15.83;78.50
66873;HTU21D;53781;51.090;5.884;2022-10-16T01:46:57;15.83;78.58
66873;HTU21D;53781;51.090;5.884;2022-10-16T01:47:15;15.85;78.58
66873;HTU21D;53781;51.090;5.884;2022-10-16T01:47:34;15.84;78.51
66873;HTU21D;53781;51.090;5.884;2022-10-16T01:47:52;15.84;78.49
66873;HTU21D;53781;51.090;5.884;2022-10-16T01:48:12;15.82;78.57
66873;HTU21D;53781;51.090;5.884;2022-10-16T01:48:30;15.83;78.49
66873;HTU21D;53781;51.090;5.884;2022-10-16T01:48:48;15.82;78.58
66873;HTU21D;53781;51.090;5.884;2022-10-16T01:49:06;15.84;78.56
66873;HTU21D;53781;51.090;5.884;2022-10-16T01:49:26;15.83;78.56
66873;HTU21D;53781;51.090;5.884;2022-10-16T01:49:44;15.82;78.62
66873;HTU21D;53781;51.090;5.884;2022-10-16T01:50:02;15.82;78.68
66873;HTU21D;53781;51.090;5.884;2022-10-16T01:50:20;15.83;78.62
66873;HTU21D;53781;51.090;5.884;2022-10-16T01:50:39;15.83;78.66
66873;HTU21D;53781;51.090;5.884;2022-10-16T01:51:04;15.83;78.66
66873;HTU21D;53781;51.090;5.884;2022-10-16T01:51:22;15.81;78.69
66873;HTU21D;53781;51.090;5.884;2022-10-16T01:51:38;15.83;78.67
66873;HTU21D;53781;51.090;5.884;2022-10-16T01:51:56;15.81;78.71
66873;HTU21D;53781;51.090;5.884;2022-10-16T01:52:20;15.82;78.69
66873;HTU21D;53781;51.090;5.884;2022-10-16T01:52:42;15.82;78.71
66873;HTU21D;53781;51.090;5.884;2022-10-16T01:52:58;15.80;78.66
66873;HTU21D;53781;51.090;5.884;2022-10-16T01:53:15;15.81;78.72
66873;HTU21D;53781;51.090;5.884;2022-10-16T01:53:32;15.81;78.69
66873;HTU21D;53781;51.090;5.884;2022-10-16T01:53:54;15.82;78.63
66873;HTU21D;53781;51.090;5.884;2022-10-16T01:54:13;15.80;78.59
66873;HTU21D;53781;51.090;5.884;2022-10-16T01:54:33;15.80;78.62
66873;HTU21D;53781;51.090;5.884;2022-10-16T01:54:53;15.81;78.56
66873;HTU21D;53781;51.090;5.884;2022-10-16T01:55:12;15.78;78.64
66873;HTU21D;53781;51.090;5.884;2022-10-16T01:55:33;15.80;78.59
66873;HTU21D;53781;51.090;5.884;2022-10-16T01:55:55;15.78;78.59
66873;HTU21D;53781;51.090;5.884;2022-10-16T01:56:12;15.80;78.69
66873;HTU21D;53781;51.090;5.884;2022-10-16T01:56:29;15.78;78.71
66873;HTU21D;53781;51.090;5.884;2022-10-16T01:56:47;15.78;78.66
66873;HTU21D;53781;51.090;5.884;2022-10-16T01:57:07;15.77;78.74
66873;HTU21D;53781;51.090;5.884;2022-10-16T01:57:27;15.78;78.75
66873;HTU21D;53781;51.090;5.884;2022-10-16T01:57:47;15.80;78.76
66873;HTU21D;53781;51.090;5.884;2022-10-16T01:58:08;15.78;78.75
66873;HTU21D;53781;51.090;5.884;2022-10-16T01:58:25;15.80;78.74
66873;HTU21D;53781;51.090;5.884;2022-10-16T01:58:49;15.78;78.77
66873;HTU21D;53781;51.090;5.884;2022-10-16T01:59:09;15.78;78.80
66873;HTU21D;53781;51.090;5.884;2022-10-16T01:59:31;15.78;78.75
66873;HTU21D;53781;51.090;5.884;2022-10-16T01:59:54;15.78;78.72
66873;HTU21D;53781;51.090;5.884;2022-10-16T02:00:13;15.77;78.72
66873;HTU21D;53781;51.090;5.884;2022-10-16T02:00:30;15.77;78.67
66873;HTU21D;53781;51.090;5.884;2022-10-16T02:00:47;15.76;78.68
66873;HTU21D;53781;51.090;5.884;2022-10-16T02:01:04;15.76;78.63
66873;HTU21D;53781;51.090;5.884;2022-10-16T02:01:24;15.75;78.68
66873;HTU21D;53781;51.090;5.884;2022-10-16T02:01:45;15.78;78.63
66873;HTU21D;53781;51.090;5.884;2022-10-16T02:02:06;15.74;78.69
66873;HTU21D;53781;51.090;5.884;2022-10-16T02:02:22;15.76;78.71
66873;HTU21D;53781;51.090;5.884;2022-10-16T02:02:42;15.74;78.70
66873;HTU21D;53781;51.090;5.884;2022-10-16T02:03:02;15.74;78.66
66873;HTU21D;53781;51.090;5.884;2022-10-16T02:03:19;15.75;78.62
66873;HTU21D;53781;51.090;5.884;2022-10-16T02:03:37;15.74;78.68
66873;HTU21D;53781;51.090;5.884;2022-10-16T02:03:56;15.74;78.61
66873;HTU21D;53781;51.090;5.884;2022-10-16T02:04:24;15.74;78.62
66873;HTU21D;53781;51.090;5.884;2022-10-16T02:04:47;15.73;78.58
66873;HTU21D;53781;51.090;5.884;2022-10-16T02:05:38;15.73;78.65
66873;HTU21D;53781;51.090;5.884;2022-10-16T02:05:54;15.72;78.55
66873;HTU21D;53781;51.090;5.884;2022-10-16T02:06:10;15.72;78.56
66873;HTU21D;53781;51.090;5.884;2022-10-16T02:06:25;15.72;78.54
66873;HTU21D;53781;51.090;5.884;2022-10-16T02:06:40;15.73;78.57
66873;HTU21D;53781;51.090;5.884;2022-10-16T02:06:55;15.71;78.59
66873;HTU21D;53781;51.090;5.884;2022-10-16T02:07:10;15.72;78.59
66873;HTU21D;53781;51.090;5.884;2022-10-16T02:07:25;15.70;78.62